Time;durP1;ratioP1;P1;durP2;ratioP2;P2;SDS_P1;SDS_P2;PMS_P1;PMS_P2;Temp;Humidity;BMP_temperature;BMP_pressure;BME280_temperature;BME280_humidity;BME280_pressure;Samples;Min_cycle;Max_cycle;Signal;HPM_P1;HPM_P2
2022/09/15 00:01:38;;;;;;;2.33;2.03;;;18.00;99.90;;;;;;5004458;28;20659;-87
2022/09/15 00:04:08;;;;;;;2.67;2.07;;;17.90;99.90;;;;;;5005937;28;20633;-87
2022/09/15 00:06:36;;;;;;;4.33;2.20;;;17.90;99.90;;;;;;5007728;28;20635;-87
2022/09/15 00:09:03;;;;;;;5.40;2.47;;;18.00;99.90;;;;;;5001598;28;20633;-87
2022/09/15 00:11:32;;;;;;;2.37;1.73;;;17.90;99.90;;;;;;5007022;28;20655;-87
2022/09/15 00:14:02;;;;;;;2.33;2.03;;;17.90;99.90;;;;;;4998157;28;20674;-88
2022/09/15 00:16:30;;;;;;;2.80;1.87;;;17.90;99.90;;;;;;5009480;28;20631;-88
2022/09/15 00:18:59;;;;;;;5.50;1.80;;;18.00;99.90;;;;;;5007162;28;20623;-87
2022/09/15 00:21:27;;;;;;;5.60;1.90;;;18.00;99.90;;;;;;5009036;28;20713;-86
2022/09/15 00:23:55;;;;;;;2.60;1.57;;;17.90;99.90;;;;;;5007847;28;20632;-88
2022/09/15 00:26:24;;;;;;;3.50;2.00;;;17.90;99.90;;;;;;5003512;28;20639;-87
2022/09/15 00:28:51;;;;;;;1.87;1.73;;;17.90;99.90;;;;;;5010339;28;21180;-88
2022/09/15 00:31:21;;;;;;;4.40;2.17;;;17.90;99.90;;;;;;5001545;28;20675;-87
2022/09/15 00:33:49;;;;;;;5.90;2.27;;;17.90;99.90;;;;;;5004655;28;21048;-87
2022/09/15 00:36:16;;;;;;;5.87;2.40;;;17.80;99.90;;;;;;5001774;28;21018;-87
2022/09/15 00:38:44;;;;;;;2.60;2.00;;;17.90;99.90;;;;;;5006106;28;20623;-87
2022/09/15 00:41:13;;;;;;;5.17;2.30;;;17.90;99.90;;;;;;5006165;28;20659;-86
2022/09/15 00:43:47;;;;;;;3.00;2.70;;;17.90;99.90;;;;;;5000860;28;20689;-88
2022/09/15 00:46:15;;;;;;;2.57;2.37;;;17.80;99.90;;;;;;4999176;28;20619;-87
2022/09/15 00:48:48;;;;;;;2.47;2.10;;;17.90;99.90;;;;;;5012014;28;20714;-86
2022/09/15 00:51:20;;;;;;;2.30;2.10;;;17.90;99.90;;;;;;5016229;28;20641;-87
2022/09/15 00:53:48;;;;;;;2.67;2.47;;;17.90;99.90;;;;;;5008754;28;20665;-87
2022/09/15 00:56:17;;;;;;;5.03;2.70;;;17.80;99.90;;;;;;5003043;28;20638;-87
2022/09/15 00:58:48;;;;;;;3.17;2.60;;;17.90;99.90;;;;;;5013029;28;20671;-87
2022/09/15 01:01:16;;;;;;;4.90;2.60;;;17.90;99.90;;;;;;5012687;28;20750;-87
2022/09/15 01:03:44;;;;;;;4.00;2.60;;;17.80;99.90;;;;;;5006234;28;20651;-87
2022/09/15 01:06:15;;;;;;;4.70;2.73;;;17.90;99.90;;;;;;5001695;28;20640;-87
2022/09/15 01:08:47;;;;;;;4.63;2.97;;;17.90;99.90;;;;;;5005915;28;20631;-87
2022/09/15 01:11:15;;;;;;;2.97;2.60;;;17.90;99.90;;;;;;5010176;28;20651;-87
2022/09/15 01:13:42;;;;;;;3.23;2.37;;;17.90;99.90;;;;;;5004575;28;20709;-88
2022/09/15 01:16:16;;;;;;;3.17;2.93;;;17.90;99.90;;;;;;5009558;28;20635;-88
2022/09/15 01:18:53;;;;;;;3.70;2.10;;;17.80;99.90;;;;;;5016733;28;20626;-88
2022/09/15 01:21:27;;;;;;;2.77;2.50;;;17.80;99.90;;;;;;5013450;28;21217;-88
2022/09/15 01:24:32;;;;;;;4.93;2.13;;;17.80;99.90;;;;;;5008742;28;21305;-88
2022/09/15 01:27:07;;;;;;;2.63;2.43;;;17.70;99.90;;;;;;5014658;28;20621;-88
2022/09/15 01:30:10;;;;;;;3.50;3.00;;;17.70;99.90;;;;;;5011585;28;21252;-88
2022/09/15 01:33:03;;;;;;;4.53;2.33;;;17.70;99.90;;;;;;5019048;28;20675;-88
2022/09/15 01:35:48;;;;;;;2.27;1.93;;;17.70;99.90;;;;;;5009483;28;20878;-88
2022/09/15 01:38:25;;;;;;;3.73;2.37;;;17.70;99.90;;;;;;5000437;28;20635;-87
2022/09/15 01:40:58;;;;;;;1.97;1.83;;;17.80;99.90;;;;;;5005786;28;20674;-88
2022/09/15 01:43:27;;;;;;;4.43;2.20;;;17.80;99.90;;;;;;5010217;28;21008;-88
2022/09/15 01:45:55;;;;;;;4.70;2.67;;;17.80;99.90;;;;;;5014293;28;20631;-88
2022/09/15 01:48:26;;;;;;;1.17;1.07;;;17.90;99.90;;;;;;5011112;28;20603;-88
2022/09/15 01:50:57;;;;;;;1.67;1.57;;;17.90;99.90;;;;;;5010131;28;20654;-88
2022/09/15 01:53:24;;;;;;;1.63;1.50;;;17.90;99.90;;;;;;5005261;28;21245;-87
2022/09/15 01:55:56;;;;;;;2.63;2.43;;;17.90;99.90;;;;;;5008167;28;20626;-88
2022/09/15 01:58:23;;;;;;;6.50;1.93;;;17.90;99.90;;;;;;5005959;28;21012;-87
2022/09/15 02:00:54;;;;;;;3.37;2.10;;;17.90;99.90;;;;;;5007006;28;20659;-87
2022/09/15 02:03:27;;;;;;;6.60;1.67;;;17.90;99.90;;;;;;5009820;28;20616;-87
2022/09/15 02:06:01;;;;;;;2.80;1.97;;;17.90;99.90;;;;;;4999936;28;20636;-87
2022/09/15 02:08:37;;;;;;;2.53;1.80;;;17.90;99.90;;;;;;5004370;28;20642;-88
2022/09/15 02:11:13;;;;;;;3.60;2.20;;;17.90;99.90;;;;;;5007035;28;20662;-88
2022/09/15 02:13:47;;;;;;;2.80;2.10;;;17.80;99.90;;;;;;5015954;28;21115;-87
2022/09/15 02:16:18;;;;;;;2.10;1.90;;;17.80;99.90;;;;;;5006409;28;20662;-87
2022/09/15 02:18:58;;;;;;;2.73;2.20;;;17.70;99.90;;;;;;5011200;28;20628;-88
2022/09/15 02:21:30;;;;;;;2.80;1.97;;;17.70;99.90;;;;;;5006639;28;20664;-88
2022/09/15 02:24:02;;;;;;;2.33;2.00;;;17.80;99.90;;;;;;5008808;28;20981;-88
2022/09/15 02:26:33;;;;;;;6.83;2.47;;;17.80;99.90;;;;;;5007854;28;20626;-87
2022/09/15 02:29:05;;;;;;;1.80;1.53;;;17.80;99.90;;;;;;5008439;28;20662;-87
2022/09/15 02:31:35;;;;;;;2.50;2.13;;;17.80;99.90;;;;;;5009731;28;20741;-87
2022/09/15 02:34:07;;;;;;;1.43;1.33;;;17.80;99.90;;;;;;5009179;28;20667;-87
2022/09/15 02:36:35;;;;;;;1.53;1.43;;;17.80;99.90;;;;;;5002814;28;20664;-87
2022/09/15 02:39:05;;;;;;;1.97;1.80;;;17.90;99.90;;;;;;5009808;28;20643;-87
2022/09/15 02:41:33;;;;;;;1.90;1.80;;;17.80;99.90;;;;;;5004154;28;21016;-87
2022/09/15 02:44:00;;;;;;;2.23;1.40;;;17.80;99.90;;;;;;5015028;28;20631;-87
2022/09/15 02:46:27;;;;;;;1.67;1.57;;;17.80;99.90;;;;;;5012262;28;20632;-88
2022/09/15 02:48:53;;;;;;;4.60;1.40;;;17.80;99.90;;;;;;5008728;28;20670;-88
2022/09/15 02:51:21;;;;;;;3.87;1.37;;;17.80;99.90;;;;;;5009620;28;20654;-87
2022/09/15 02:53:48;;;;;;;2.87;1.60;;;17.80;99.90;;;;;;5006106;28;21264;-88
2022/09/15 02:56:17;;;;;;;2.00;1.40;;;17.90;99.90;;;;;;5002243;28;20646;-87
2022/09/15 02:58:43;;;;;;;2.90;1.30;;;17.90;99.90;;;;;;5012042;28;20694;-87
2022/09/15 03:01:14;;;;;;;2.87;1.47;;;17.90;99.90;;;;;;5005858;28;20668;-88
2022/09/15 03:03:42;;;;;;;2.23;1.70;;;17.90;99.90;;;;;;5009262;28;20643;-87
2022/09/15 03:06:20;;;;;;;1.90;1.80;;;18.00;99.90;;;;;;5006677;28;20656;-87
2022/09/15 03:08:51;;;;;;;1.83;1.57;;;18.00;99.90;;;;;;5010059;28;20636;-87
2022/09/15 03:11:19;;;;;;;1.67;1.43;;;18.00;99.90;;;;;;5008141;28;20746;-88
2022/09/15 03:13:46;;;;;;;1.70;1.60;;;18.00;99.90;;;;;;5007245;28;21037;-88
2022/09/15 03:16:15;;;;;;;1.90;1.20;;;18.10;99.90;;;;;;5007151;28;20682;-87
2022/09/15 03:18:42;;;;;;;5.43;1.60;;;18.10;99.90;;;;;;5007645;28;20634;-87
2022/09/15 03:21:12;;;;;;;1.77;1.00;;;18.10;99.90;;;;;;5012355;28;20656;-87
2022/09/15 03:23:39;;;;;;;1.90;1.20;;;18.10;99.90;;;;;;5007446;28;20628;-87
2022/09/15 03:26:08;;;;;;;3.33;1.20;;;18.10;99.90;;;;;;5007200;28;20638;-87
2022/09/15 03:28:36;;;;;;;1.70;0.73;;;18.10;99.90;;;;;;5003814;28;20977;-87
2022/09/15 03:31:03;;;;;;;0.80;0.80;;;18.10;99.90;;;;;;5007941;28;20640;-87
2022/09/15 03:33:30;;;;;;;1.10;1.00;;;18.10;99.90;;;;;;5008742;28;20674;-88
2022/09/15 03:35:56;;;;;;;3.00;1.00;;;18.10;99.90;;;;;;5006951;28;20642;-87
2022/09/15 03:38:23;;;;;;;4.13;1.33;;;18.10;99.90;;;;;;5007450;28;20642;-87
2022/09/15 03:41:01;;;;;;;2.57;1.30;;;18.10;99.90;;;;;;5005259;28;20659;-88
2022/09/15 03:43:29;;;;;;;2.13;1.13;;;18.10;99.90;;;;;;5008960;28;21241;-88
2022/09/15 03:45:57;;;;;;;1.63;1.53;;;18.00;99.90;;;;;;5006316;28;21149;-88
2022/09/15 03:48:24;;;;;;;4.60;1.70;;;18.00;99.90;;;;;;5007635;28;20640;-88
2022/09/15 03:50:51;;;;;;;1.30;1.20;;;18.00;99.90;;;;;;5005776;28;20705;-88
2022/09/15 03:53:19;;;;;;;1.60;1.00;;;18.00;99.90;;;;;;5002333;28;20678;-88
2022/09/15 03:55:46;;;;;;;1.30;1.20;;;17.90;99.90;;;;;;5007453;28;20638;-88
2022/09/15 03:58:13;;;;;;;2.43;1.00;;;18.00;99.90;;;;;;5005248;28;21508;-88
2022/09/15 04:00:41;;;;;;;1.60;1.50;;;18.00;99.90;;;;;;5010902;28;20663;-87
2022/09/15 04:03:08;;;;;;;3.93;2.00;;;18.10;99.90;;;;;;5007415;28;20639;-87
2022/09/15 04:05:36;;;;;;;2.83;1.57;;;18.00;99.90;;;;;;5008066;28;20616;-87
2022/09/15 04:08:03;;;;;;;2.90;1.07;;;18.00;99.90;;;;;;5012074;28;20627;-88
2022/09/15 04:10:30;;;;;;;2.33;1.50;;;18.00;99.90;;;;;;5010915;28;20655;-87
2022/09/15 04:12:57;;;;;;;2.47;1.47;;;18.00;99.90;;;;;;5006311;28;20631;-88
2022/09/15 04:15:24;;;;;;;1.50;1.40;;;18.00;99.90;;;;;;5002554;28;20678;-88
2022/09/15 04:17:52;;;;;;;5.53;1.30;;;18.00;99.90;;;;;;5006642;28;20635;-87
2022/09/15 04:20:19;;;;;;;2.30;1.53;;;18.00;99.90;;;;;;5007158;28;20698;-87
2022/09/15 04:22:45;;;;;;;1.30;1.17;;;18.00;99.90;;;;;;5007445;28;20627;-88
2022/09/15 04:25:12;;;;;;;2.03;1.27;;;18.00;99.90;;;;;;5005782;28;20615;-87
2022/09/15 04:27:39;;;;;;;2.80;1.47;;;18.00;99.90;;;;;;5009738;28;20615;-87
2022/09/15 04:30:07;;;;;;;3.00;1.37;;;18.00;99.90;;;;;;5000055;28;22103;-87
2022/09/15 04:32:35;;;;;;;1.40;1.30;;;18.00;99.90;;;;;;5006989;28;20988;-86
2022/09/15 04:35:04;;;;;;;2.60;1.40;;;18.00;99.90;;;;;;5009829;28;20668;-87
2022/09/15 04:37:32;;;;;;;4.77;1.40;;;18.00;99.90;;;;;;5012738;28;20666;-86
2022/09/15 04:39:59;;;;;;;1.73;1.40;;;18.00;99.90;;;;;;5012775;28;20987;-86
2022/09/15 04:42:26;;;;;;;1.07;0.97;;;18.10;99.90;;;;;;5010399;28;20734;-87
2022/09/15 04:44:53;;;;;;;0.93;0.93;;;18.10;99.90;;;;;;5004708;28;20633;-88
2022/09/15 04:47:20;;;;;;;3.13;1.40;;;18.10;99.90;;;;;;5003350;28;20631;-87
2022/09/15 04:49:47;;;;;;;2.03;0.90;;;18.00;99.90;;;;;;5002213;28;21004;-88
2022/09/15 04:52:15;;;;;;;1.73;1.13;;;18.00;99.90;;;;;;5001460;28;20668;-88
2022/09/15 04:54:42;;;;;;;2.30;1.10;;;18.10;99.90;;;;;;5006359;28;20659;-87
2022/09/15 04:57:09;;;;;;;0.87;0.87;;;18.10;99.90;;;;;;5004248;28;20628;-87
2022/09/15 04:59:36;;;;;;;1.80;1.00;;;18.10;99.90;;;;;;5004762;28;20651;-88
2022/09/15 05:02:03;;;;;;;2.20;1.03;;;18.10;99.90;;;;;;5007580;28;20737;-88
2022/09/15 05:04:30;;;;;;;1.80;1.23;;;18.10;99.90;;;;;;5011243;28;20620;-88
2022/09/15 05:06:57;;;;;;;1.90;1.10;;;18.10;99.90;;;;;;5003040;28;20630;-87
2022/09/15 05:09:28;;;;;;;1.70;1.00;;;18.10;99.90;;;;;;5006439;28;20627;-88
2022/09/15 05:11:56;;;;;;;1.00;0.90;;;18.10;99.90;;;;;;5001716;28;21279;-88
2022/09/15 05:14:23;;;;;;;2.77;0.77;;;18.20;99.90;;;;;;5002402;28;20996;-88
2022/09/15 05:16:49;;;;;;;2.57;0.90;;;18.20;99.90;;;;;;4999286;28;20654;-87
2022/09/15 05:19:16;;;;;;;1.47;0.97;;;18.20;99.90;;;;;;5001192;28;20635;-88
2022/09/15 05:21:43;;;;;;;1.77;0.80;;;18.20;99.90;;;;;;4997758;28;20663;-86
2022/09/15 05:24:09;;;;;;;1.23;0.90;;;18.20;99.90;;;;;;5002820;28;20644;-87
2022/09/15 05:26:37;;;;;;;2.60;1.10;;;18.20;99.90;;;;;;5004619;28;20636;-88
2022/09/15 05:29:04;;;;;;;1.17;1.07;;;18.20;99.90;;;;;;5002661;28;20644;-87
2022/09/15 05:31:33;;;;;;;2.23;1.17;;;18.20;99.90;;;;;;5002164;28;20663;-87
2022/09/15 05:34:02;;;;;;;2.33;0.93;;;18.20;99.90;;;;;;5003472;28;20734;-87
2022/09/15 05:36:29;;;;;;;3.73;1.50;;;18.30;99.90;;;;;;5006408;28;20629;-87
2022/09/15 05:38:56;;;;;;;1.20;1.00;;;18.20;99.90;;;;;;5009539;28;21221;-87
2022/09/15 05:41:25;;;;;;;1.43;1.10;;;18.30;99.90;;;;;;5004093;28;20651;-88
2022/09/15 05:43:55;;;;;;;2.20;1.20;;;18.30;99.90;;;;;;5007445;28;20639;-88
2022/09/15 05:46:24;;;;;;;1.93;1.30;;;18.30;99.90;;;;;;5004074;28;20627;-88
2022/09/15 05:48:52;;;;;;;1.73;1.50;;;18.30;99.90;;;;;;5005374;28;20738;-88
2022/09/15 05:51:20;;;;;;;3.33;1.40;;;18.30;99.90;;;;;;5008914;28;20850;-87
2022/09/15 05:53:47;;;;;;;3.97;1.27;;;18.40;99.90;;;;;;5004800;28;21122;-87
2022/09/15 05:56:15;;;;;;;2.00;1.17;;;18.30;99.90;;;;;;5005307;28;20646;-88
2022/09/15 05:58:44;;;;;;;1.47;1.17;;;18.40;99.90;;;;;;5007005;28;20692;-87
2022/09/15 06:01:14;;;;;;;2.20;0.90;;;18.40;99.90;;;;;;5004630;28;20656;-88
2022/09/15 06:03:41;;;;;;;1.33;0.93;;;18.40;99.90;;;;;;5006632;28;20620;-87
2022/09/15 06:06:08;;;;;;;1.37;1.00;;;18.40;99.90;;;;;;5004743;28;20629;-87
2022/09/15 06:08:38;;;;;;;1.37;1.10;;;18.40;99.90;;;;;;5008209;28;20631;-87
2022/09/15 06:11:06;;;;;;;1.60;0.83;;;18.50;99.90;;;;;;5006654;28;20684;-87
2022/09/15 06:13:33;;;;;;;1.83;1.27;;;18.50;99.90;;;;;;5005536;28;20724;-87
2022/09/15 06:16:05;;;;;;;0.90;0.90;;;18.50;99.90;;;;;;5009460;28;20662;-87
2022/09/15 06:18:36;;;;;;;1.80;1.07;;;18.50;99.90;;;;;;5010593;28;20622;-87
2022/09/15 06:21:08;;;;;;;2.57;1.20;;;18.60;99.90;;;;;;5007765;28;20651;-87
2022/09/15 06:23:35;;;;;;;1.53;1.30;;;18.60;99.90;;;;;;5003233;28;21166;-87
2022/09/15 06:26:11;;;;;;;0.80;0.80;;;18.60;99.90;;;;;;4999629;28;20627;-88
2022/09/15 06:28:38;;;;;;;2.87;1.20;;;18.60;99.90;;;;;;5003643;28;20665;-86
2022/09/15 06:31:09;;;;;;;1.67;1.00;;;18.60;99.90;;;;;;5002257;28;20656;-87
2022/09/15 06:33:40;;;;;;;1.20;1.17;;;18.60;99.90;;;;;;5004042;28;20699;-87
2022/09/15 06:36:10;;;;;;;1.17;1.10;;;18.70;99.90;;;;;;5005492;28;20660;-87
2022/09/15 06:38:36;;;;;;;1.27;1.17;;;18.70;99.90;;;;;;5018060;28;20722;-87
2022/09/15 06:41:03;;;;;;;0.70;0.70;;;18.60;99.90;;;;;;5008753;28;20654;-86
2022/09/15 06:43:31;;;;;;;1.13;0.80;;;18.70;99.90;;;;;;5008273;28;20638;-86
2022/09/15 06:46:03;;;;;;;1.70;1.00;;;18.70;99.90;;;;;;5010459;28;20631;-86
2022/09/15 06:48:30;;;;;;;1.27;0.87;;;18.70;99.90;;;;;;5006873;28;21066;-88
2022/09/15 06:51:00;;;;;;;1.47;0.80;;;18.70;99.90;;;;;;5001267;28;20725;-86
2022/09/15 06:53:29;;;;;;;1.40;0.87;;;18.70;99.90;;;;;;5005812;28;20635;-86
2022/09/15 06:55:56;;;;;;;2.27;1.27;;;18.70;99.90;;;;;;5003667;28;20678;-85
2022/09/15 06:58:22;;;;;;;2.70;0.70;;;18.60;99.90;;;;;;5002358;28;20627;-84
2022/09/15 07:00:49;;;;;;;1.57;1.13;;;18.60;99.90;;;;;;5003381;28;20667;-84
2022/09/15 07:03:16;;;;;;;2.50;1.20;;;18.50;99.90;;;;;;5003652;28;20630;-85
2022/09/15 07:05:43;;;;;;;2.63;1.53;;;18.40;99.90;;;;;;5005649;28;20617;-84
2022/09/15 07:08:13;;;;;;;1.20;1.10;;;18.40;99.90;;;;;;5003669;28;20629;-83
2022/09/15 07:10:42;;;;;;;2.20;1.20;;;18.30;99.90;;;;;;5004105;28;20679;-84
2022/09/15 07:13:10;;;;;;;2.37;1.27;;;18.20;99.90;;;;;;5004546;28;20636;-85
2022/09/15 07:15:37;;;;;;;1.33;0.87;;;18.20;99.90;;;;;;5003934;28;20666;-85
2022/09/15 07:18:05;;;;;;;1.87;1.10;;;18.20;99.90;;;;;;5000600;28;20742;-84
2022/09/15 07:20:32;;;;;;;1.30;1.10;;;18.20;99.90;;;;;;5001539;28;20666;-84
2022/09/15 07:22:58;;;;;;;2.50;0.90;;;18.20;99.90;;;;;;4998619;28;20660;-84
2022/09/15 07:25:26;;;;;;;1.80;1.20;;;18.20;99.90;;;;;;5002961;28;20620;-84
2022/09/15 07:27:53;;;;;;;3.33;1.10;;;18.10;99.90;;;;;;5004899;28;20627;-84
2022/09/15 07:30:20;;;;;;;3.17;1.43;;;18.20;99.90;;;;;;5009923;28;20969;-84
2022/09/15 07:32:47;;;;;;;1.53;1.20;;;18.10;99.90;;;;;;5008911;28;20659;-84
2022/09/15 07:35:13;;;;;;;2.80;1.10;;;18.20;99.90;;;;;;5006280;28;20672;-84
2022/09/15 07:37:40;;;;;;;1.17;0.80;;;18.10;99.90;;;;;;5012883;28;21001;-84
2022/09/15 07:40:08;;;;;;;1.30;1.13;;;18.10;99.90;;;;;;5010044;28;20640;-84
2022/09/15 07:42:36;;;;;;;0.73;0.73;;;18.20;99.90;;;;;;5015100;28;20684;-86
2022/09/15 07:45:03;;;;;;;2.07;1.10;;;18.20;99.90;;;;;;5007381;28;20643;-84
2022/09/15 07:47:30;;;;;;;5.93;1.50;;;18.30;99.90;;;;;;5015389;28;20627;-84
2022/09/15 07:49:57;;;;;;;2.60;1.40;;;18.30;99.90;;;;;;5007173;28;20641;-83
2022/09/15 07:52:23;;;;;;;3.37;1.40;;;18.40;99.90;;;;;;5011850;28;20663;-84
2022/09/15 07:54:51;;;;;;;2.70;1.40;;;18.40;99.90;;;;;;5001605;28;20667;-84
2022/09/15 07:57:17;;;;;;;3.67;1.30;;;18.50;99.90;;;;;;5005474;28;20627;-84
2022/09/15 07:59:45;;;;;;;3.27;1.20;;;18.50;99.90;;;;;;5001466;28;20635;-84
2022/09/15 08:02:16;;;;;;;1.57;1.20;;;18.60;99.90;;;;;;5007022;28;20635;-83
2022/09/15 08:04:44;;;;;;;1.40;1.30;;;18.60;99.90;;;;;;5004706;28;20710;-84
2022/09/15 08:07:11;;;;;;;2.03;1.13;;;18.60;99.90;;;;;;5006301;28;20634;-84
2022/09/15 08:09:39;;;;;;;2.77;1.13;;;18.60;99.90;;;;;;5010376;28;21004;-83
2022/09/15 08:12:07;;;;;;;3.33;1.60;;;18.60;99.90;;;;;;5015634;28;20623;-85
2022/09/15 08:14:34;;;;;;;2.93;1.23;;;18.60;99.90;;;;;;5011608;28;20979;-83
2022/09/15 08:17:03;;;;;;;2.87;1.30;;;18.60;99.90;;;;;;5015387;28;20631;-83
2022/09/15 08:19:32;;;;;;;2.37;0.97;;;18.60;99.90;;;;;;5010224;28;20822;-83
2022/09/15 08:21:59;;;;;;;4.17;1.40;;;18.50;99.90;;;;;;5008877;28;20732;-83
2022/09/15 08:24:26;;;;;;;3.63;0.90;;;18.50;99.90;;;;;;5014453;28;20639;-83
2022/09/15 08:26:53;;;;;;;1.50;0.77;;;18.50;99.90;;;;;;5007305;28;20977;-83
2022/09/15 08:29:20;;;;;;;1.37;0.87;;;18.50;99.90;;;;;;5009176;28;20643;-83
2022/09/15 08:31:47;;;;;;;2.13;1.40;;;18.50;99.90;;;;;;5011793;28;20642;-83
2022/09/15 08:34:16;;;;;;;4.87;1.23;;;18.50;99.90;;;;;;5010637;28;21257;-83
2022/09/15 08:36:45;;;;;;;8.27;3.13;;;18.50;99.90;;;;;;5010316;28;20663;-84
2022/09/15 08:39:12;;;;;;;4.03;1.37;;;18.60;99.90;;;;;;5009757;28;20657;-84
2022/09/15 08:41:43;;;;;;;2.60;1.27;;;18.60;99.90;;;;;;5006251;28;21200;-83
2022/09/15 08:44:22;;;;;;;2.00;1.10;;;18.60;99.90;;;;;;5010777;28;20666;-83
2022/09/15 08:46:53;;;;;;;1.30;1.07;;;18.60;99.90;;;;;;5010733;28;21153;-84
2022/09/15 08:49:26;;;;;;;2.03;1.10;;;18.60;99.90;;;;;;5012860;28;20627;-83
2022/09/15 08:51:56;;;;;;;1.70;1.00;;;18.70;99.90;;;;;;5012243;28;20631;-84
2022/09/15 08:54:26;;;;;;;1.10;0.90;;;18.70;99.90;;;;;;5008673;28;20663;-84
2022/09/15 08:56:54;;;;;;;2.70;1.33;;;18.70;99.90;;;;;;5002745;28;20662;-84
2022/09/15 08:59:21;;;;;;;2.13;1.50;;;18.80;99.90;;;;;;5013198;28;20631;-84
2022/09/15 09:02:20;;;;;;;1.73;1.00;;;18.80;99.90;;;;;;5010972;28;20636;-84
2022/09/15 09:05:02;;;;;;;2.10;1.20;;;18.90;99.90;;;;;;5007504;28;20697;-84
2022/09/15 09:07:51;;;;;;;2.67;1.60;;;18.90;99.90;;;;;;5008813;28;20636;-84
2022/09/15 09:10:25;;;;;;;3.13;1.23;;;19.00;99.90;;;;;;5010186;28;20636;-84
2022/09/15 09:13:06;;;;;;;2.70;1.40;;;19.10;99.90;;;;;;5021482;28;20997;-84
2022/09/15 09:15:43;;;;;;;1.60;1.50;;;19.10;99.90;;;;;;5010076;28;20663;-84
2022/09/15 09:18:36;;;;;;;2.93;1.60;;;19.20;99.90;;;;;;5014095;28;20715;-84
2022/09/15 09:21:15;;;;;;;3.90;1.17;;;19.10;99.90;;;;;;4999974;28;20640;-84
2022/09/15 09:23:46;;;;;;;2.80;1.40;;;19.10;99.90;;;;;;5014022;28;21311;-84
2022/09/15 09:26:14;;;;;;;2.40;1.43;;;19.30;99.90;;;;;;5010770;28;20623;-84
2022/09/15 09:28:47;;;;;;;2.43;1.43;;;19.30;99.90;;;;;;5008360;28;20650;-84
2022/09/15 09:31:18;;;;;;;2.50;1.50;;;19.40;99.90;;;;;;5009424;28;20629;-84
2022/09/15 09:33:51;;;;;;;2.10;1.27;;;19.40;99.90;;;;;;5015862;28;20655;-84
2022/09/15 09:36:20;;;;;;;2.00;1.00;;;19.50;99.90;;;;;;5011767;28;20662;-84
2022/09/15 09:38:50;;;;;;;1.07;0.90;;;19.50;99.90;;;;;;5007287;28;21027;-84
2022/09/15 09:41:21;;;;;;;2.50;1.07;;;19.60;99.90;;;;;;5008256;28;20615;-85
2022/09/15 09:43:49;;;;;;;2.20;0.90;;;19.70;99.90;;;;;;5014580;28;20661;-85
2022/09/15 09:46:18;;;;;;;1.27;1.17;;;19.70;99.90;;;;;;5014622;28;20630;-85
2022/09/15 09:48:49;;;;;;;1.47;1.20;;;19.80;99.90;;;;;;5009949;28;20639;-85
2022/09/15 09:51:40;;;;;;;2.70;1.30;;;19.80;99.90;;;;;;5006542;28;21056;-86
2022/09/15 09:54:19;;;;;;;1.67;1.07;;;19.90;99.90;;;;;;5006906;28;20655;-85
2022/09/15 09:56:54;;;;;;;1.30;1.20;;;20.00;99.90;;;;;;5004405;28;21029;-84
2022/09/15 09:59:54;;;;;;;1.63;1.27;;;19.90;99.90;;;;;;5008995;28;20635;-85
2022/09/15 10:02:23;;;;;;;1.80;1.13;;;19.90;99.90;;;;;;5012417;28;20769;-85
2022/09/15 10:04:52;;;;;;;1.40;0.90;;;19.90;99.90;;;;;;5004039;28;20640;-84
2022/09/15 10:07:22;;;;;;;1.07;0.97;;;19.80;99.90;;;;;;5003132;28;21001;-84
2022/09/15 10:09:52;;;;;;;0.87;0.60;;;19.80;99.90;;;;;;5012699;28;21259;-83
2022/09/15 10:12:23;;;;;;;1.00;0.60;;;19.60;99.90;;;;;;5005782;28;20683;-84
2022/09/15 10:14:53;;;;;;;2.93;0.80;;;19.40;99.90;;;;;;5010224;28;20651;-84
2022/09/15 10:17:22;;;;;;;0.80;0.43;;;19.20;99.90;;;;;;5006066;28;20669;-83
2022/09/15 10:19:52;;;;;;;1.60;0.50;;;19.10;99.90;;;;;;5008193;28;21281;-83
2022/09/15 10:22:29;;;;;;;2.30;0.53;;;19.10;99.90;;;;;;5008521;28;20683;-83
2022/09/15 10:24:56;;;;;;;0.73;0.40;;;18.90;99.90;;;;;;5016743;28;20620;-83
2022/09/15 10:27:29;;;;;;;0.87;0.43;;;18.80;99.90;;;;;;5006990;28;20623;-79
2022/09/15 10:29:58;;;;;;;4.97;1.23;;;18.70;99.90;;;;;;5009232;28;20636;-86
2022/09/15 10:32:27;;;;;;;7.70;1.40;;;19.00;99.90;;;;;;5015306;28;20674;-87
2022/09/15 10:35:02;;;;;;;1.57;1.37;;;19.40;99.90;;;;;;5011696;28;20647;-85
2022/09/15 10:37:35;;;;;;;0.90;0.50;;;19.80;99.90;;;;;;5017058;28;20619;-86
2022/09/15 10:40:21;;;;;;;3.03;0.73;;;20.10;99.90;;;;;;5007228;28;21233;-86
2022/09/15 10:42:51;;;;;;;4.30;1.00;;;20.30;99.90;;;;;;5005255;28;21170;-85
2022/09/15 10:45:29;;;;;;;3.50;1.00;;;20.50;99.90;;;;;;5009500;28;20985;-85
2022/09/15 10:48:18;;;;;;;1.27;0.60;;;20.50;99.90;;;;;;5008783;28;20619;-86
2022/09/15 10:50:54;;;;;;;1.77;1.13;;;20.60;99.90;;;;;;5001417;28;20638;-86
2022/09/15 10:53:34;;;;;;;2.70;0.80;;;20.80;99.90;;;;;;5011096;28;20654;-84
2022/09/15 10:56:12;;;;;;;6.40;1.00;;;20.80;99.90;;;;;;5008509;28;20667;-86
2022/09/15 10:58:51;;;;;;;1.13;0.60;;;20.90;99.90;;;;;;5010995;28;20626;-85
2022/09/15 11:01:35;;;;;;;3.93;0.90;;;21.00;99.90;;;;;;5013115;28;20771;-88
2022/09/15 11:04:32;;;;;;;2.23;0.50;;;21.10;99.90;;;;;;5007214;28;21580;-85
2022/09/15 11:07:08;;;;;;;0.60;0.40;;;21.10;99.90;;;;;;5000520;28;21174;-85
2022/09/15 11:09:42;;;;;;;1.20;0.50;;;21.20;99.90;;;;;;5008132;28;20610;-85
2022/09/15 11:12:25;;;;;;;1.00;0.90;;;21.20;99.90;;;;;;5010626;28;20611;-88
2022/09/15 11:15:02;;;;;;;2.40;0.50;;;21.10;99.90;;;;;;5007263;28;20630;-88
2022/09/15 11:17:43;;;;;;;1.27;0.53;;;21.00;99.90;;;;;;5010169;28;20647;-87
2022/09/15 11:20:28;;;;;;;1.73;0.70;;;21.00;99.90;;;;;;5007560;28;21197;-87
2022/09/15 11:23:02;;;;;;;2.73;1.60;;;21.00;99.90;;;;;;5006291;28;20662;-87
2022/09/15 11:25:34;;;;;;;1.53;0.80;;;20.90;99.90;;;;;;5009002;28;20636;-86
2022/09/15 11:28:04;;;;;;;1.90;0.70;;;20.90;99.90;;;;;;5013191;28;20638;-88
2022/09/15 11:30:36;;;;;;;0.43;0.40;;;20.90;99.90;;;;;;5011503;28;20623;-88
2022/09/15 11:33:10;;;;;;;1.40;0.50;;;21.00;99.90;;;;;;5017550;28;20654;-87
2022/09/15 11:35:46;;;;;;;2.37;0.70;;;21.00;99.90;;;;;;5005362;28;20639;-88
2022/09/15 11:38:23;;;;;;;1.90;1.07;;;21.00;99.90;;;;;;5008266;28;20620;-87
2022/09/15 11:40:56;;;;;;;4.30;1.07;;;21.10;99.90;;;;;;5005738;28;20777;-87
2022/09/15 11:43:32;;;;;;;2.20;1.07;;;21.20;99.90;;;;;;5010480;28;20674;-87
2022/09/15 11:46:02;;;;;;;1.00;0.60;;;21.20;99.90;;;;;;5015478;28;20990;-86
2022/09/15 11:48:35;;;;;;;0.90;0.87;;;21.30;99.90;;;;;;5006616;28;20985;-86
2022/09/15 11:51:06;;;;;;;2.93;0.90;;;21.30;99.90;;;;;;5007622;28;20648;-86
2022/09/15 11:53:39;;;;;;;1.80;1.10;;;21.30;99.90;;;;;;5016852;28;20648;-88
2022/09/15 11:56:16;;;;;;;1.00;0.70;;;21.20;99.90;;;;;;5005334;28;20662;-90
2022/09/15 11:58:54;;;;;;;4.57;1.50;;;21.10;99.90;;;;;;5005506;28;20662;-88
2022/09/15 12:01:24;;;;;;;2.00;0.80;;;21.00;99.90;;;;;;5002699;28;20667;-87
2022/09/15 12:03:56;;;;;;;1.60;1.00;;;21.00;99.90;;;;;;4996655;28;20652;-87
2022/09/15 12:06:30;;;;;;;16.40;1.47;;;21.10;99.90;;;;;;5005312;28;20635;-86
2022/09/15 12:08:59;;;;;;;2.47;1.27;;;21.20;99.90;;;;;;5007628;28;20632;-86
2022/09/15 12:11:31;;;;;;;1.27;0.80;;;21.30;99.90;;;;;;5006251;28;20620;-87
2022/09/15 12:13:59;;;;;;;1.57;0.80;;;21.30;99.90;;;;;;4997638;28;20655;-86
2022/09/15 12:16:26;;;;;;;1.17;1.07;;;21.30;99.90;;;;;;5007757;28;20837;-86
2022/09/15 12:18:57;;;;;;;1.97;1.13;;;21.30;99.90;;;;;;5002195;28;20996;-87
2022/09/15 12:21:34;;;;;;;3.60;1.77;;;21.40;99.90;;;;;;5010178;28;20627;-86
2022/09/15 12:24:09;;;;;;;1.90;1.53;;;21.40;99.90;;;;;;5012767;28;21225;-87
2022/09/15 12:26:38;;;;;;;8.60;1.33;;;21.40;99.90;;;;;;5003724;28;20691;-87
2022/09/15 12:29:30;;;;;;;4.13;2.03;;;20.70;99.90;;;;;;5010328;28;20734;-88
2022/09/15 12:32:23;;;;;;;4.33;1.57;;;20.30;99.90;;;;;;5005686;28;20760;-86
2022/09/15 12:34:58;;;;;;;4.50;1.17;;;20.50;99.90;;;;;;5001538;28;21213;-86
2022/09/15 12:37:26;;;;;;;1.70;1.47;;;20.50;99.90;;;;;;5006355;28;20656;-87
2022/09/15 12:39:53;;;;;;;3.37;1.30;;;20.00;99.90;;;;;;5000590;28;20632;-86
2022/09/15 12:42:23;;;;;;;2.00;1.20;;;19.70;99.90;;;;;;5007097;28;20686;-87
2022/09/15 12:44:54;;;;;;;2.50;1.40;;;19.70;99.90;;;;;;5005931;28;20623;-86
2022/09/15 12:47:27;;;;;;;2.37;2.17;;;19.80;99.90;;;;;;5004856;28;20630;-85
2022/09/15 12:49:58;;;;;;;2.60;1.80;;;19.70;99.90;;;;;;5007098;28;20727;-86
2022/09/15 12:52:25;;;;;;;1.90;1.73;;;19.80;99.90;;;;;;5007048;28;20647;-90
2022/09/15 12:54:56;;;;;;;5.90;1.90;;;19.80;99.90;;;;;;5002461;28;20635;-88
2022/09/15 12:57:28;;;;;;;4.20;2.47;;;19.90;99.90;;;;;;5004997;28;20675;-88
2022/09/15 13:00:26;;;;;;;2.57;1.73;;;19.80;99.90;;;;;;5005500;28;21002;-88
2022/09/15 13:02:54;;;;;;;2.93;1.40;;;19.80;99.90;;;;;;5008700;28;20669;-88
2022/09/15 13:05:52;;;;;;;4.70;3.13;;;20.00;99.90;;;;;;5006773;28;20630;-89
2022/09/15 13:08:45;;;;;;;4.83;2.83;;;20.10;99.90;;;;;;5013247;28;20640;-88